Time;durP1;ratioP1;P1;durP2;ratioP2;P2;SDS_P1;SDS_P2;PMS_P1;PMS_P2;Temp;Humidity;BMP_temperature;BMP_pressure;BME280_temperature;BME280_humidity;BME280_pressure;Samples;Min_cycle;Max_cycle;Signal;HPM_P1;HPM_P2
2022/05/02 00:02:11;;;;;;;26.80;19.53;;;;;;;;;;769146;182;919628;-66
2022/05/02 00:04:37;;;;;;;26.10;20.83;;;;;;;;;;775304;182;919275;-67
2022/05/02 00:07:03;;;;;;;25.70;19.90;;;;;;;;;;773539;175;918588;-67
2022/05/02 00:09:29;;;;;;;41.40;25.73;;;;;;;;;;769334;182;919183;-66
2022/05/02 00:11:54;;;;;;;28.20;20.83;;;;;;;;;;773107;182;919427;-67
2022/05/02 00:14:20;;;;;;;51.17;30.00;;;;;;;;;;769326;182;919789;-67
2022/05/02 00:16:46;;;;;;;39.88;29.25;;;;;;;;;;764016;182;926496;-66
2022/05/02 00:19:12;;;;;;;54.63;34.80;;;;;;;;;;774274;182;917983;-65
2022/05/02 00:21:38;;;;;;;30.90;23.20;;;;;;;;;;767455;182;919733;-66
2022/05/02 00:24:04;;;;;;;33.17;22.20;;;;;;;;;;764259;183;1020548;-66
2022/05/02 00:26:29;;;;;;;30.27;22.23;;;;;;;;;;767581;182;919340;-66
2022/05/02 00:28:55;;;;;;;29.33;22.20;;;;;;;;;;775327;176;918862;-66
2022/05/02 00:31:21;;;;;;;29.70;21.70;;;;;;;;;;767673;177;918828;-66
2022/05/02 00:33:47;;;;;;;30.97;19.97;;;;;;;;;;768629;182;917819;-67
2022/05/02 00:36:13;;;;;;;29.13;21.70;;;;;;;;;;776077;182;909681;-65
2022/05/02 00:38:39;;;;;;;25.67;20.50;;;;;;;;;;773260;182;918504;-69
2022/05/02 00:41:05;;;;;;;28.08;21.12;;;;;;;;;;769438;182;919912;-66
2022/05/02 00:43:30;;;;;;;27.23;21.50;;;;;;;;;;773958;182;919734;-67
2022/05/02 00:45:56;;;;;;;30.70;21.33;;;;;;;;;;771654;177;920243;-66
2022/05/02 00:48:22;;;;;;;33.70;23.50;;;;;;;;;;770275;177;919085;-66
2022/05/02 00:50:48;;;;;;;35.90;24.57;;;;;;;;;;782571;175;919812;-66
2022/05/02 00:53:14;;;;;;;27.73;21.07;;;;;;;;;;772959;179;921138;-67
2022/05/02 00:55:40;;;;;;;29.40;21.50;;;;;;;;;;771843;181;922441;-67
2022/05/02 00:58:05;;;;;;;25.93;20.17;;;;;;;;;;770350;181;918719;-66
2022/05/02 01:00:31;;;;;;;29.43;20.27;;;;;;;;;;774739;182;919449;-66
2022/05/02 01:02:57;;;;;;;29.77;20.50;;;;;;;;;;766664;182;916901;-66
2022/05/02 01:05:23;;;;;;;30.17;20.67;;;;;;;;;;766578;182;916450;-66
2022/05/02 01:07:49;;;;;;;27.93;21.20;;;;;;;;;;772615;182;919247;-65
2022/05/02 01:10:17;;;;;;;28.80;20.37;;;;;;;;;;770970;180;918958;-65
2022/05/02 01:12:41;;;;;;;25.70;19.13;;;;;;;;;;768206;182;919655;-66
2022/05/02 01:15:07;;;;;;;28.23;19.43;;;;;;;;;;774677;182;918811;-65
2022/05/02 01:17:33;;;;;;;25.70;19.37;;;;;;;;;;771432;182;919249;-65
2022/05/02 01:19:58;;;;;;;27.07;19.30;;;;;;;;;;770937;182;918451;-65
2022/05/02 01:22:24;;;;;;;26.23;18.73;;;;;;;;;;768584;182;919582;-64
2022/05/02 01:24:50;;;;;;;24.30;19.63;;;;;;;;;;763718;184;919251;-65
2022/05/02 01:27:16;;;;;;;25.05;19.10;;;;;;;;;;768651;177;919696;-66
2022/05/02 01:29:42;;;;;;;27.83;18.93;;;;;;;;;;772210;177;919576;-66
2022/05/02 01:32:08;;;;;;;34.53;18.13;;;;;;;;;;782089;177;919020;-66
2022/05/02 01:34:34;;;;;;;24.57;17.53;;;;;;;;;;772737;179;919202;-66
2022/05/02 01:37:00;;;;;;;21.53;17.13;;;;;;;;;;782849;179;920926;-67
2022/05/02 01:39:26;;;;;;;25.30;18.43;;;;;;;;;;775131;179;918361;-67
2022/05/02 01:41:52;;;;;;;25.70;16.97;;;;;;;;;;766938;182;924175;-66
2022/05/02 01:44:18;;;;;;;24.60;17.62;;;;;;;;;;771382;179;936338;-66
2022/05/02 01:46:43;;;;;;;24.60;18.10;;;;;;;;;;782350;178;920626;-65
2022/05/02 01:49:09;;;;;;;23.00;17.33;;;;;;;;;;772480;178;898264;-66
2022/05/02 01:51:35;;;;;;;25.67;18.57;;;;;;;;;;772414;179;918672;-66
2022/05/02 01:54:01;;;;;;;21.23;17.10;;;;;;;;;;781401;178;918705;-66
2022/05/02 01:56:27;;;;;;;21.30;15.90;;;;;;;;;;778975;178;918913;-67
2022/05/02 01:58:53;;;;;;;22.70;16.30;;;;;;;;;;780827;178;919090;-67
2022/05/02 02:01:19;;;;;;;25.50;17.20;;;;;;;;;;772638;177;918218;-66
2022/05/02 02:03:44;;;;;;;25.60;18.47;;;;;;;;;;792047;175;918695;-66
2022/05/02 02:06:10;;;;;;;24.33;17.60;;;;;;;;;;783239;177;919401;-66
2022/05/02 02:08:36;;;;;;;23.30;18.58;;;;;;;;;;785983;177;918607;-66
2022/05/02 02:11:03;;;;;;;20.20;16.53;;;;;;;;;;784677;175;919081;-66
2022/05/02 02:13:29;;;;;;;23.30;17.57;;;;;;;;;;776878;182;915923;-66
2022/05/02 02:15:54;;;;;;;20.87;17.20;;;;;;;;;;771956;182;920831;-66
2022/05/02 02:18:20;;;;;;;26.37;19.13;;;;;;;;;;771926;182;919079;-66
2022/05/02 02:20:46;;;;;;;26.77;18.30;;;;;;;;;;785195;178;632423;-66
2022/05/02 02:23:13;;;;;;;23.53;17.93;;;;;;;;;;769469;182;919476;-66
2022/05/02 02:25:39;;;;;;;27.47;18.37;;;;;;;;;;768685;180;918678;-66
2022/05/02 02:28:05;;;;;;;22.30;16.50;;;;;;;;;;773488;182;919662;-66
2022/05/02 02:30:30;;;;;;;25.10;18.60;;;;;;;;;;766283;183;1021216;-66
2022/05/02 02:32:56;;;;;;;26.23;18.93;;;;;;;;;;775935;177;920216;-66
2022/05/02 02:35:22;;;;;;;28.60;17.53;;;;;;;;;;790129;177;919533;-69
2022/05/02 02:37:48;;;;;;;24.63;17.67;;;;;;;;;;779020;177;922794;-66
2022/05/02 02:40:14;;;;;;;26.43;18.40;;;;;;;;;;760981;182;2142842;-66
2022/05/02 02:42:40;;;;;;;26.97;21.07;;;;;;;;;;767386;182;919845;-66
2022/05/02 02:45:06;;;;;;;24.00;17.40;;;;;;;;;;775367;179;915987;-66
2022/05/02 02:47:32;;;;;;;28.93;19.00;;;;;;;;;;764607;179;923377;-64
2022/05/02 02:49:58;;;;;;;23.37;18.13;;;;;;;;;;765986;179;917332;-66
2022/05/02 02:52:24;;;;;;;29.53;20.07;;;;;;;;;;777388;177;917643;-66
2022/05/02 02:54:49;;;;;;;24.00;18.30;;;;;;;;;;765936;179;945541;-66
2022/05/02 02:57:15;;;;;;;24.43;18.00;;;;;;;;;;780900;179;918242;-66
2022/05/02 02:59:41;;;;;;;24.03;18.27;;;;;;;;;;773525;179;908903;-65
2022/05/02 03:02:07;;;;;;;19.93;16.50;;;;;;;;;;767603;182;916996;-65
2022/05/02 03:07:05;;;;;;;21.00;17.43;;;;;;;;;;769185;182;1021311;-65
2022/05/02 03:09:30;;;;;;;26.73;17.85;;;;;;;;;;774423;182;920069;-66
2022/05/02 03:11:56;;;;;;;25.30;18.40;;;;;;;;;;770723;182;919348;-66
2022/05/02 03:14:22;;;;;;;25.40;18.70;;;;;;;;;;768948;180;927624;-66
2022/05/02 03:16:48;;;;;;;24.20;17.87;;;;;;;;;;772401;182;931915;-65
2022/05/02 03:19:14;;;;;;;26.93;16.40;;;;;;;;;;773014;177;919600;-66
2022/05/02 03:21:40;;;;;;;23.77;17.77;;;;;;;;;;772856;176;917253;-65
2022/05/02 03:24:06;;;;;;;25.23;18.53;;;;;;;;;;769540;182;918961;-65
2022/05/02 03:26:32;;;;;;;21.70;17.23;;;;;;;;;;772233;182;919547;-65
2022/05/02 03:28:58;;;;;;;23.47;18.80;;;;;;;;;;768838;182;919178;-66
2022/05/02 03:31:23;;;;;;;30.13;18.07;;;;;;;;;;765778;182;919656;-65
2022/05/02 03:33:49;;;;;;;24.20;19.30;;;;;;;;;;770082;182;919082;-65
2022/05/02 03:36:16;;;;;;;32.40;21.43;;;;;;;;;;767920;182;919192;-64
2022/05/02 03:38:41;;;;;;;28.73;20.03;;;;;;;;;;784181;175;919111;-65
2022/05/02 03:41:07;;;;;;;28.30;20.67;;;;;;;;;;788937;177;919195;-65
2022/05/02 03:43:33;;;;;;;23.63;19.57;;;;;;;;;;767920;182;921154;-66
2022/05/02 03:45:59;;;;;;;27.80;20.73;;;;;;;;;;769519;182;919479;-65
2022/05/02 03:48:26;;;;;;;26.58;20.33;;;;;;;;;;768659;182;918320;-65
2022/05/02 03:50:50;;;;;;;25.93;19.80;;;;;;;;;;773797;182;919636;-65
2022/05/02 03:53:18;;;;;;;30.37;21.57;;;;;;;;;;766305;182;919466;-65
2022/05/02 03:55:43;;;;;;;30.42;22.50;;;;;;;;;;759004;182;919394;-65
2022/05/02 03:58:08;;;;;;;24.60;20.10;;;;;;;;;;771442;183;919199;-65
2022/05/02 04:00:34;;;;;;;26.40;21.30;;;;;;;;;;768122;182;919360;-65
2022/05/02 04:03:00;;;;;;;30.60;23.50;;;;;;;;;;768738;182;918991;-65
2022/05/02 04:05:25;;;;;;;30.13;22.67;;;;;;;;;;772321;182;919490;-65
2022/05/02 04:07:52;;;;;;;29.37;23.00;;;;;;;;;;767848;182;918939;-65
2022/05/02 04:10:17;;;;;;;28.00;21.10;;;;;;;;;;766347;182;919718;-64
2022/05/02 04:12:43;;;;;;;26.57;19.90;;;;;;;;;;773044;182;919630;-64
2022/05/02 04:15:10;;;;;;;33.37;23.90;;;;;;;;;;767220;182;919539;-65
2022/05/02 04:17:36;;;;;;;36.77;24.57;;;;;;;;;;766548;182;919024;-65
2022/05/02 04:20:02;;;;;;;30.93;24.47;;;;;;;;;;767507;182;919510;-65
2022/05/02 04:22:27;;;;;;;33.60;23.57;;;;;;;;;;776400;175;918429;-64
2022/05/02 04:24:53;;;;;;;32.13;23.57;;;;;;;;;;765209;180;918719;-65
2022/05/02 04:27:19;;;;;;;35.65;26.65;;;;;;;;;;769701;181;1123874;-65
2022/05/02 04:29:45;;;;;;;30.90;23.50;;;;;;;;;;775695;181;918396;-65
2022/05/02 04:32:11;;;;;;;34.80;24.07;;;;;;;;;;769944;182;919869;-64
2022/05/02 04:34:36;;;;;;;31.90;25.20;;;;;;;;;;768399;181;919251;-65
2022/05/02 04:37:02;;;;;;;31.60;23.77;;;;;;;;;;774375;182;919192;-66
2022/05/02 04:39:28;;;;;;;36.03;23.40;;;;;;;;;;777616;178;918953;-65
2022/05/02 04:41:54;;;;;;;31.30;23.63;;;;;;;;;;777401;177;919817;-65
2022/05/02 04:44:20;;;;;;;34.03;26.37;;;;;;;;;;770409;182;919397;-66
2022/05/02 04:46:46;;;;;;;33.10;24.83;;;;;;;;;;772766;182;919250;-65
2022/05/02 04:49:12;;;;;;;37.87;27.20;;;;;;;;;;770711;179;919227;-64
2022/05/02 04:51:37;;;;;;;36.43;24.97;;;;;;;;;;766327;182;920438;-65
2022/05/02 04:54:03;;;;;;;31.73;24.40;;;;;;;;;;772585;182;919074;-69
2022/05/02 04:56:29;;;;;;;41.90;23.70;;;;;;;;;;774483;179;919320;-65
2022/05/02 04:58:55;;;;;;;33.53;23.03;;;;;;;;;;763437;182;640584;-65
2022/05/02 05:01:21;;;;;;;30.70;21.47;;;;;;;;;;775257;180;918918;-65
2022/05/02 05:03:47;;;;;;;31.50;22.30;;;;;;;;;;775727;177;919518;-65
2022/05/02 05:06:12;;;;;;;33.13;23.30;;;;;;;;;;765382;182;992087;-65
2022/05/02 05:08:38;;;;;;;34.10;22.03;;;;;;;;;;767957;182;919008;-65
2022/05/02 05:11:16;;;;;;;32.17;24.10;;;;;;;;;;773715;182;919019;-66
2022/05/02 05:16:20;;;;;;;29.40;24.47;;;;;;;;;;761543;177;919419;-65
2022/05/02 05:19:02;;;;;;;28.80;20.03;;;;;;;;;;767651;182;919866;-65
2022/05/02 05:21:48;;;;;;;29.70;22.17;;;;;;;;;;767058;181;924026;-68
2022/05/02 05:24:19;;;;;;;32.30;22.10;;;;;;;;;;750746;184;919924;-65
2022/05/02 05:27:00;;;;;;;31.77;22.13;;;;;;;;;;764613;182;919190;-66
2022/05/02 05:29:35;;;;;;;33.23;24.17;;;;;;;;;;761532;182;919329;-65
2022/05/02 05:32:12;;;;;;;30.43;23.10;;;;;;;;;;772978;183;741948;-66
2022/05/02 05:34:41;;;;;;;40.97;24.40;;;;;;;;;;775395;182;637501;-66
2022/05/02 05:37:12;;;;;;;31.17;23.20;;;;;;;;;;763590;179;619430;-66
2022/05/02 05:39:40;;;;;;;29.03;22.27;;;;;;;;;;773336;178;636646;-66
2022/05/02 05:42:08;;;;;;;33.67;22.70;;;;;;;;;;775619;176;629143;-65
2022/05/02 05:44:36;;;;;;;32.63;26.10;;;;;;;;;;785784;175;624305;-67
2022/05/02 05:47:14;;;;;;;30.17;23.47;;;;;;;;;;772623;182;626920;-66
2022/05/02 05:49:41;;;;;;;36.60;27.63;;;;;;;;;;772463;182;613852;-66
2022/05/02 05:52:11;;;;;;;37.90;25.07;;;;;;;;;;771136;182;644084;-66
2022/05/02 05:54:40;;;;;;;34.17;24.10;;;;;;;;;;772201;182;627654;-66
2022/05/02 05:57:09;;;;;;;34.73;24.20;;;;;;;;;;771735;182;624818;-66
2022/05/02 05:59:37;;;;;;;32.40;25.23;;;;;;;;;;780977;177;922900;-66
2022/05/02 06:02:06;;;;;;;36.53;24.60;;;;;;;;;;770863;182;628913;-66
2022/05/02 06:04:31;;;;;;;37.70;26.03;;;;;;;;;;773340;182;614593;-66
2022/05/02 06:06:56;;;;;;;28.67;23.40;;;;;;;;;;770501;182;628864;-67
2022/05/02 06:09:22;;;;;;;30.60;23.20;;;;;;;;;;772757;182;632985;-66
2022/05/02 06:11:48;;;;;;;34.10;24.53;;;;;;;;;;772228;182;634490;-66
2022/05/02 06:14:14;;;;;;;30.33;23.23;;;;;;;;;;775745;182;614529;-66
2022/05/02 06:19:14;;;;;;;32.60;22.60;;;;;;;;;;770557;182;627809;-67
2022/05/02 06:21:41;;;;;;;31.57;21.90;;;;;;;;;;770850;182;624451;-66
2022/05/02 06:24:06;;;;;;;29.50;21.83;;;;;;;;;;776388;182;630524;-68
2022/05/02 06:26:32;;;;;;;35.33;21.90;;;;;;;;;;772739;182;623904;-67
2022/05/02 06:28:58;;;;;;;27.00;19.83;;;;;;;;;;771773;179;682102;-67
2022/05/02 06:31:25;;;;;;;24.67;19.93;;;;;;;;;;781925;176;627479;-66
2022/05/02 06:33:50;;;;;;;26.90;21.40;;;;;;;;;;772278;180;636264;-67
2022/05/02 06:36:29;;;;;;;26.00;18.83;;;;;;;;;;771534;182;623373;-66
2022/05/02 06:38:54;;;;;;;25.13;19.10;;;;;;;;;;768306;182;622633;-67
2022/05/02 06:41:22;;;;;;;23.57;17.43;;;;;;;;;;775776;182;616550;-67
2022/05/02 06:44:03;;;;;;;32.77;20.87;;;;;;;;;;774699;179;629187;-66
2022/05/02 06:46:29;;;;;;;26.93;21.40;;;;;;;;;;766907;179;625136;-67
2022/05/02 06:48:56;;;;;;;27.10;20.30;;;;;;;;;;775512;176;637069;-67
2022/05/02 06:51:23;;;;;;;28.20;21.80;;;;;;;;;;786311;176;629816;-67
2022/05/02 06:53:50;;;;;;;26.40;19.43;;;;;;;;;;764713;183;615407;-68
2022/05/02 06:56:17;;;;;;;25.93;18.40;;;;;;;;;;784586;175;627437;-67
2022/05/02 06:58:49;;;;;;;30.97;21.40;;;;;;;;;;772845;181;628122;-68
2022/05/02 07:01:30;;;;;;;22.13;17.70;;;;;;;;;;757681;185;628108;-67
2022/05/02 07:04:06;;;;;;;30.10;19.80;;;;;;;;;;768950;182;913120;-68
2022/05/02 07:06:32;;;;;;;31.93;18.00;;;;;;;;;;777012;182;619256;-69
2022/05/02 07:09:01;;;;;;;20.90;17.03;;;;;;;;;;766210;179;626608;-68
2022/05/02 07:11:28;;;;;;;28.83;18.73;;;;;;;;;;788108;177;619898;-68
2022/05/02 07:13:55;;;;;;;26.57;18.67;;;;;;;;;;788581;177;630542;-69
2022/05/02 07:16:22;;;;;;;22.00;16.53;;;;;;;;;;776411;179;623723;-69
2022/05/02 07:18:59;;;;;;;27.73;19.50;;;;;;;;;;779325;179;626074;-68
2022/05/02 07:21:43;;;;;;;19.93;17.03;;;;;;;;;;773359;182;640198;-69
2022/05/02 07:24:13;;;;;;;20.23;16.30;;;;;;;;;;767984;179;623487;-68
2022/05/02 07:26:39;;;;;;;27.33;16.97;;;;;;;;;;779016;179;636317;-68
2022/05/02 07:29:05;;;;;;;22.30;17.80;;;;;;;;;;779239;182;619954;-68
2022/05/02 07:31:30;;;;;;;28.60;18.67;;;;;;;;;;774725;182;619278;-69
2022/05/02 07:33:57;;;;;;;25.03;17.63;;;;;;;;;;775545;182;635032;-69
2022/05/02 07:36:23;;;;;;;26.43;16.87;;;;;;;;;;784097;179;680021;-67
2022/05/02 07:38:50;;;;;;;26.43;17.77;;;;;;;;;;775519;178;626546;-67
2022/05/02 07:43:47;;;;;;;30.63;19.30;;;;;;;;;;787304;178;627314;-68
2022/05/02 07:46:13;;;;;;;25.43;17.80;;;;;;;;;;779904;182;619294;-69
2022/05/02 07:48:39;;;;;;;26.67;18.83;;;;;;;;;;775491;182;637437;-68
2022/05/02 07:51:04;;;;;;;24.20;18.60;;;;;;;;;;775237;182;632937;-70
2022/05/02 07:53:30;;;;;;;22.50;17.67;;;;;;;;;;779254;182;624452;-70
2022/05/02 07:55:56;;;;;;;24.00;18.90;;;;;;;;;;779032;178;633380;-69
2022/05/02 07:58:22;;;;;;;27.00;19.77;;;;;;;;;;784095;176;735207;-68
2022/05/02 08:00:48;;;;;;;28.37;19.63;;;;;;;;;;777784;178;627009;-68
2022/05/02 08:03:14;;;;;;;25.17;20.30;;;;;;;;;;793868;177;625172;-69
2022/05/02 08:05:39;;;;;;;25.00;19.00;;;;;;;;;;776726;181;616989;-69
2022/05/02 08:08:06;;;;;;;26.10;16.60;;;;;;;;;;776984;180;632069;-69
2022/05/02 08:10:36;;;;;;;22.73;17.27;;;;;;;;;;778323;182;617739;-68
2022/05/02 08:13:22;;;;;;;25.13;17.40;;;;;;;;;;775436;182;633784;-69
2022/05/02 08:15:50;;;;;;;28.23;18.40;;;;;;;;;;779638;182;629338;-69
2022/05/02 08:18:19;;;;;;;19.83;15.33;;;;;;;;;;785504;177;626889;-69
2022/05/02 08:20:56;;;;;;;26.93;16.50;;;;;;;;;;780229;178;627935;-69
2022/05/02 08:28:35;;;;;;;28.90;17.23;;;;;;;;;;787990;176;637160;-70
2022/05/02 08:31:02;;;;;;;18.37;14.67;;;;;;;;;;788385;177;617040;-69
2022/05/02 08:33:29;;;;;;;18.13;15.00;;;;;;;;;;780048;178;637143;-70
2022/05/02 08:35:58;;;;;;;21.40;15.50;;;;;;;;;;775194;182;627011;-70
2022/05/02 08:38:25;;;;;;;26.00;14.93;;;;;;;;;;779713;180;637176;-70
2022/05/02 08:41:06;;;;;;;19.93;14.50;;;;;;;;;;777411;175;633301;-70
2022/05/02 08:43:39;;;;;;;20.30;14.90;;;;;;;;;;770186;181;623899;-71
2022/05/02 08:46:23;;;;;;;17.80;14.23;;;;;;;;;;779615;179;624399;-69
2022/05/02 08:51:36;;;;;;;18.97;12.70;;;;;;;;;;770590;182;627803;-70
2022/05/02 08:54:08;;;;;;;22.27;14.93;;;;;;;;;;771430;182;918707;-69
2022/05/02 08:56:49;;;;;;;20.13;14.03;;;;;;;;;;779086;182;619626;-70
2022/05/02 08:59:32;;;;;;;15.97;11.77;;;;;;;;;;774523;182;647286;-71
2022/05/02 09:01:58;;;;;;;18.27;14.13;;;;;;;;;;766547;182;627857;-69
2022/05/02 09:04:24;;;;;;;16.70;13.70;;;;;;;;;;770958;179;915792;-70
2022/05/02 09:06:55;;;;;;;18.93;12.63;;;;;;;;;;775845;179;918592;-71
2022/05/02 09:09:24;;;;;;;16.20;14.00;;;;;;;;;;779094;175;643466;-70
2022/05/02 09:11:52;;;;;;;17.43;12.80;;;;;;;;;;762541;182;619379;-68
2022/05/02 09:14:32;;;;;;;16.90;12.07;;;;;;;;;;776620;174;630068;-73
2022/05/02 09:17:04;;;;;;;26.27;15.07;;;;;;;;;;753936;185;629896;-70
2022/05/02 09:19:47;;;;;;;16.33;12.03;;;;;;;;;;776322;181;623236;-70
2022/05/02 09:22:18;;;;;;;17.47;11.97;;;;;;;;;;769091;179;629349;-69
2022/05/02 09:24:44;;;;;;;16.80;12.50;;;;;;;;;;780160;179;627424;-70
2022/05/02 09:27:11;;;;;;;18.10;11.93;;;;;;;;;;778406;182;631903;-70
2022/05/02 09:29:39;;;;;;;15.80;12.57;;;;;;;;;;779739;179;622532;-71
2022/05/02 09:32:08;;;;;;;14.50;11.97;;;;;;;;;;784523;178;619175;-70
2022/05/02 09:34:35;;;;;;;16.30;12.03;;;;;;;;;;788359;176;624804;-68
2022/05/02 09:37:03;;;;;;;13.53;10.80;;;;;;;;;;792482;176;619909;-70
2022/05/02 09:39:34;;;;;;;14.43;10.37;;;;;;;;;;778676;178;623793;-70
2022/05/02 09:42:06;;;;;;;13.97;9.97;;;;;;;;;;774848;182;636923;-72
2022/05/02 09:49:53;;;;;;;15.23;9.83;;;;;;;;;;767004;184;620080;-70
2022/05/02 09:52:25;;;;;;;14.90;10.00;;;;;;;;;;760909;185;630045;-70
2022/05/02 09:57:22;;;;;;;12.50;9.57;;;;;;;;;;774323;182;634779;-70
2022/05/02 09:59:48;;;;;;;11.97;9.70;;;;;;;;;;770273;182;918129;-69
2022/05/02 10:02:18;;;;;;;19.13;9.90;;;;;;;;;;776099;182;628468;-71
2022/05/02 10:04:43;;;;;;;14.10;9.37;;;;;;;;;;777703;179;631402;-71
2022/05/02 10:07:09;;;;;;;13.10;9.87;;;;;;;;;;749010;185;641223;-72
2022/05/02 10:09:51;;;;;;;12.60;9.17;;;;;;;;;;762278;184;623390;-71
2022/05/02 10:12:17;;;;;;;14.87;8.30;;;;;;;;;;753502;186;633063;-71
2022/05/02 10:14:43;;;;;;;9.30;8.17;;;;;;;;;;781963;179;623319;-70
2022/05/02 10:17:16;;;;;;;9.53;6.50;;;;;;;;;;788118;176;623658;-71
2022/05/02 10:19:38;;;;;;;10.87;5.93;;;;;;;;;;787577;175;638351;-70
2022/05/02 10:22:19;;;;;;;12.47;8.37;;;;;;;;;;781860;179;670811;-71
2022/05/02 10:24:48;;;;;;;10.83;7.27;;;;;;;;;;788286;177;621845;-71
2022/05/02 10:27:17;;;;;;;14.30;8.50;;;;;;;;;;770907;181;628138;-71
2022/05/02 10:29:46;;;;;;;13.63;6.90;;;;;;;;;;776177;181;637385;-72
2022/05/02 10:32:32;;;;;;;11.20;6.70;;;;;;;;;;774999;182;679500;-72
2022/05/02 10:34:59;;;;;;;7.83;6.37;;;;;;;;;;774001;182;628766;-70
2022/05/02 10:37:24;;;;;;;7.10;5.70;;;;;;;;;;785394;177;620937;-72
2022/05/02 10:39:51;;;;;;;9.40;5.97;;;;;;;;;;772732;179;617191;-72
2022/05/02 10:42:17;;;;;;;7.97;5.77;;;;;;;;;;770719;182;628056;-72
2022/05/02 10:45:02;;;;;;;10.80;6.00;;;;;;;;;;774570;183;617071;-70
2022/05/02 10:47:28;;;;;;;9.07;6.97;;;;;;;;;;778144;182;620275;-71
2022/05/02 10:50:07;;;;;;;12.00;7.17;;;;;;;;;;785638;176;1124203;-72
2022/05/02 10:52:35;;;;;;;12.83;7.90;;;;;;;;;;779354;179;616642;-72
2022/05/02 10:55:02;;;;;;;8.10;6.40;;;;;;;;;;771523;182;635727;-72
2022/05/02 10:57:30;;;;;;;9.93;6.80;;;;;;;;;;771053;182;627962;-72
2022/05/02 10:59:55;;;;;;;14.20;5.57;;;;;;;;;;777064;182;620538;-72
2022/05/02 11:02:26;;;;;;;5.90;4.97;;;;;;;;;;750580;186;615169;-71
2022/05/02 11:04:52;;;;;;;10.73;5.70;;;;;;;;;;749621;186;636630;-72
2022/05/02 11:07:20;;;;;;;7.67;6.43;;;;;;;;;;776728;182;616245;-72
2022/05/02 11:09:50;;;;;;;6.60;5.23;;;;;;;;;;777129;182;633233;-71
2022/05/02 11:12:15;;;;;;;7.23;5.90;;;;;;;;;;774779;182;622387;-72
2022/05/02 11:14:44;;;;;;;7.53;6.37;;;;;;;;;;782595;176;642655;-72
2022/05/02 11:17:11;;;;;;;8.70;6.20;;;;;;;;;;788020;178;632278;-74
2022/05/02 11:22:23;;;;;;;6.97;5.87;;;;;;;;;;770713;182;632936;-72
2022/05/02 11:24:51;;;;;;;8.90;5.53;;;;;;;;;;769345;182;620284;-69
2022/05/02 11:27:19;;;;;;;6.67;5.03;;;;;;;;;;775071;179;618105;-71
2022/05/02 11:30:03;;;;;;;7.90;5.73;;;;;;;;;;781271;177;722498;-73
2022/05/02 11:32:44;;;;;;;8.27;5.80;;;;;;;;;;775037;182;614317;-73
2022/05/02 11:35:11;;;;;;;7.63;6.30;;;;;;;;;;757293;181;618858;-68
2022/05/02 11:37:37;;;;;;;12.57;7.13;;;;;;;;;;773676;181;623188;-71
2022/05/02 11:40:02;;;;;;;8.10;6.80;;;;;;;;;;773001;182;622594;-70
2022/05/02 11:42:28;;;;;;;10.83;6.37;;;;;;;;;;773184;181;628945;-73
2022/05/02 11:45:00;;;;;;;7.10;5.50;;;;;;;;;;778380;179;632990;-71
2022/05/02 11:47:35;;;;;;;8.10;5.10;;;;;;;;;;772668;182;650532;-71
2022/05/02 11:50:03;;;;;;;8.40;5.67;;;;;;;;;;772113;182;635918;-71
2022/05/02 11:52:29;;;;;;;7.67;5.53;;;;;;;;;;772835;182;622369;-72
2022/05/02 11:54:54;;;;;;;9.67;5.90;;;;;;;;;;782262;177;634384;-74
2022/05/02 11:57:20;;;;;;;7.23;5.07;;;;;;;;;;772664;182;627342;-72
2022/05/02 11:59:47;;;;;;;10.23;5.60;;;;;;;;;;771952;182;623529;-72
2022/05/02 12:02:14;;;;;;;7.43;5.27;;;;;;;;;;790799;177;618879;-72
2022/05/02 12:04:40;;;;;;;7.90;4.87;;;;;;;;;;790240;177;620574;-71
2022/05/02 12:07:06;;;;;;;6.53;5.60;;;;;;;;;;790807;176;638922;-71
2022/05/02 12:09:34;;;;;;;7.70;5.00;;;;;;;;;;779963;177;648523;-73
2022/05/02 12:11:58;;;;;;;7.30;5.17;;;;;;;;;;772039;182;615096;-72
2022/05/02 12:14:24;;;;;;;11.00;4.73;;;;;;;;;;771854;182;635100;-72
2022/05/02 12:16:55;;;;;;;7.07;4.90;;;;;;;;;;771219;182;656866;-71
2022/05/02 12:19:22;;;;;;;9.77;5.67;;;;;;;;;;773294;182;623857;-73
2022/05/02 12:21:48;;;;;;;6.43;4.83;;;;;;;;;;764387;182;635722;-73
2022/05/02 12:24:14;;;;;;;8.67;5.60;;;;;;;;;;773016;180;619274;-73
2022/05/02 12:26:43;;;;;;;7.73;4.70;;;;;;;;;;768780;182;628451;-72
2022/05/02 12:29:12;;;;;;;10.67;5.37;;;;;;;;;;782121;179;619360;-74
2022/05/02 12:31:38;;;;;;;7.00;5.30;;;;;;;;;;781898;175;623660;-73
2022/05/02 12:34:04;;;;;;;7.37;5.47;;;;;;;;;;773894;182;619204;-71
2022/05/02 12:36:44;;;;;;;7.40;5.87;;;;;;;;;;776616;182;608651;-73
2022/05/02 12:39:10;;;;;;;6.53;4.60;;;;;;;;;;775729;180;628355;-73
2022/05/02 12:41:41;;;;;;;8.23;5.70;;;;;;;;;;770632;182;627511;-75
2022/05/02 12:44:07;;;;;;;9.13;6.00;;;;;;;;;;774837;179;630091;-73
2022/05/02 12:46:34;;;;;;;6.87;4.97;;;;;;;;;;773465;180;618703;-72
2022/05/02 12:49:01;;;;;;;7.03;5.43;;;;;;;;;;783400;178;615885;-72
2022/05/02 12:51:28;;;;;;;9.77;4.83;;;;;;;;;;774112;176;902405;-74
2022/05/02 12:56:24;;;;;;;8.23;5.37;;;;;;;;;;762190;184;624836;-72
2022/05/02 13:01:22;;;;;;;8.87;5.77;;;;;;;;;;771449;182;634092;-71
2022/05/02 13:03:54;;;;;;;7.83;5.50;;;;;;;;;;788537;175;617322;-71
2022/05/02 13:06:19;;;;;;;6.07;4.77;;;;;;;;;;781157;176;644071;-73
2022/05/02 13:08:45;;;;;;;7.10;5.83;;;;;;;;;;779091;182;613092;-72
2022/05/02 13:11:12;;;;;;;9.27;5.07;;;;;;;;;;789203;178;630167;-72
2022/05/02 13:13:37;;;;;;;7.17;5.00;;;;;;;;;;791080;177;625554;-72
2022/05/02 13:16:03;;;;;;;9.23;6.00;;;;;;;;;;790903;175;612856;-73
2022/05/02 13:18:29;;;;;;;7.70;5.17;;;;;;;;;;774798;178;654273;-73
2022/05/02 13:20:57;;;;;;;7.70;5.13;;;;;;;;;;779908;176;919407;-74
2022/05/02 13:23:22;;;;;;;9.90;4.83;;;;;;;;;;774687;182;633205;-72
2022/05/02 13:25:50;;;;;;;6.40;4.67;;;;;;;;;;771639;182;619677;-74
2022/05/02 13:28:23;;;;;;;8.90;5.10;;;;;;;;;;771880;182;618913;-72
2022/05/02 13:30:48;;;;;;;5.57;4.17;;;;;;;;;;771724;180;628096;-73
2022/05/02 13:33:14;;;;;;;7.20;5.20;;;;;;;;;;786107;176;615196;-73
2022/05/02 13:35:41;;;;;;;6.80;5.00;;;;;;;;;;772161;179;622152;-74
2022/05/02 13:38:06;;;;;;;8.43;4.67;;;;;;;;;;771125;182;638394;-73
2022/05/02 13:40:35;;;;;;;8.33;4.70;;;;;;;;;;769913;182;630837;-72
2022/05/02 13:43:02;;;;;;;7.47;5.57;;;;;;;;;;776112;179;623510;-72
2022/05/02 13:45:28;;;;;;;7.27;4.80;;;;;;;;;;765782;182;619166;-73
2022/05/02 13:48:05;;;;;;;6.67;5.17;;;;;;;;;;771127;182;645104;-73
2022/05/02 13:50:31;;;;;;;10.50;5.23;;;;;;;;;;766424;182;636872;-72
2022/05/02 13:53:07;;;;;;;6.33;5.20;;;;;;;;;;769942;182;615134;-73
2022/05/02 13:55:34;;;;;;;6.93;5.00;;;;;;;;;;751480;183;622227;-71
2022/05/02 13:58:01;;;;;;;6.10;5.00;;;;;;;;;;768790;179;624199;-72
2022/05/02 14:01:23;;;;;;;9.80;5.97;;;;;;;;;;761521;185;637035;-71
2022/05/02 14:03:10;;;;;;;6.93;4.60;;;;;;;;;;764247;185;619949;-73
2022/05/02 14:05:32;;;;;;;6.83;4.57;;;;;;;;;;777259;179;629526;-71
2022/05/02 14:08:00;;;;;;;6.70;5.20;;;;;;;;;;784663;176;619207;-72
2022/05/02 14:10:24;;;;;;;15.53;5.37;;;;;;;;;;782301;176;634940;-71
2022/05/02 14:12:49;;;;;;;11.70;5.10;;;;;;;;;;781367;182;619187;-71
2022/05/02 14:15:15;;;;;;;9.30;5.30;;;;;;;;;;772329;182;644514;-71
2022/05/02 14:17:46;;;;;;;9.90;5.17;;;;;;;;;;772206;182;635820;-71
2022/05/02 14:20:13;;;;;;;11.53;6.93;;;;;;;;;;788010;178;625296;-71
2022/05/02 14:22:38;;;;;;;8.10;5.63;;;;;;;;;;790011;177;628410;-72
2022/05/02 14:25:05;;;;;;;6.40;5.03;;;;;;;;;;789059;176;629189;-71
2022/05/02 14:27:31;;;;;;;6.03;5.00;;;;;;;;;;775783;182;623780;-72
2022/05/02 14:29:58;;;;;;;10.10;5.63;;;;;;;;;;789145;179;618180;-72
2022/05/02 14:32:26;;;;;;;9.60;7.43;;;;;;;;;;777967;179;624845;-72
2022/05/02 14:34:52;;;;;;;9.60;6.67;;;;;;;;;;770772;182;643471;-71
2022/05/02 14:37:18;;;;;;;16.70;9.40;;;;;;;;;;773338;182;633834;-71
2022/05/02 14:39:44;;;;;;;18.30;11.20;;;;;;;;;;781904;179;626456;-71
2022/05/02 14:42:09;;;;;;;17.40;10.73;;;;;;;;;;772450;183;630068;-71
2022/05/02 14:44:35;;;;;;;12.33;9.23;;;;;;;;;;774627;182;639447;-72
2022/05/02 14:47:01;;;;;;;14.47;8.60;;;;;;;;;;779226;182;624914;-73
2022/05/02 14:49:27;;;;;;;12.53;8.70;;;;;;;;;;774454;182;643104;-71